createdAt,value
2018-04-26T00:00:46.694Z,97771.66
2018-04-26T00:03:14.285Z,97770.08
2018-04-26T00:05:41.900Z,97759.96
2018-04-26T00:08:09.507Z,97753.18
2018-04-26T00:10:37.524Z,97766.67
2018-04-26T00:13:05.114Z,97771.04
2018-04-26T00:15:32.715Z,97758.61
2018-04-26T00:18:00.337Z,97767.63
2018-04-26T00:20:27.938Z,97768.88
2018-04-26T00:22:55.554Z,97768.95
2018-04-26T00:25:23.148Z,97768.55
2018-04-26T00:27:51.163Z,97780.02
2018-04-26T00:30:18.755Z,97775.06
2018-04-26T00:32:46.351Z,97776.12
2018-04-26T00:35:14.041Z,97786.19
2018-04-26T00:37:41.588Z,97776.64
2018-04-26T00:40:09.211Z,97784.22
2018-04-26T00:42:36.939Z,97785.76
2018-04-26T00:45:04.798Z,97779.54
2018-04-26T00:47:32.391Z,97769.91
2018-04-26T00:49:59.979Z,97765.66
2018-04-26T00:52:27.590Z,97769.34
2018-04-26T00:54:55.183Z,97764.34
2018-04-26T00:57:22.820Z,97761.99
2018-04-26T00:59:50.427Z,97759.72
2018-04-26T01:02:18.016Z,97755.41
2018-04-26T01:04:45.627Z,97760.27
2018-04-26T01:07:13.219Z,97759.07
2018-04-26T01:09:40.858Z,97754.75
2018-04-26T01:12:08.456Z,97755.64
2018-04-26T01:14:36.042Z,97759.06
2018-04-26T01:17:03.658Z,97745.94
2018-04-26T01:19:31.365Z,97741.80
2018-04-26T01:21:58.982Z,97754.84
2018-04-26T01:24:26.578Z,97768.78
2018-04-26T01:26:54.212Z,97766.64
2018-04-26T01:29:21.804Z,97761.45
2018-04-26T01:31:49.427Z,97766.16
2018-04-26T01:34:17.050Z,97774.61
2018-04-26T01:36:56.428Z,97767.03
2018-04-26T01:39:24.043Z,97773.88
2018-04-26T01:41:51.853Z,97780.41
2018-04-26T01:44:19.478Z,97782.79
2018-04-26T01:46:47.069Z,97772.12
2018-04-26T01:49:14.977Z,97776.59
2018-04-26T01:51:42.567Z,97771.71
2018-04-26T01:54:10.213Z,97784.88
2018-04-26T01:56:37.834Z,97795.78
2018-04-26T01:59:05.484Z,97802.06
2018-04-26T02:01:33.092Z,97803.41
2018-04-26T02:04:00.695Z,97804.06
2018-04-26T02:06:28.528Z,97805.96
2018-04-26T02:08:56.136Z,97810.67
2018-04-26T02:11:23.727Z,97808.38
2018-04-26T02:13:51.352Z,97807.70
2018-04-26T02:16:18.940Z,97808.75
2018-04-26T02:18:46.552Z,97817.57
2018-04-26T02:21:14.305Z,97811.04
2018-04-26T02:23:42.040Z,97814.95
2018-04-26T02:26:09.637Z,97818.44
2018-04-26T02:28:37.229Z,97814.62
2018-04-26T02:31:04.834Z,97811.38
2018-04-26T02:33:32.441Z,97801.94
2018-04-26T02:36:00.053Z,97816.77
2018-04-26T02:38:27.646Z,97815.17
2018-04-26T02:40:55.392Z,97822.09
2018-04-26T02:43:22.978Z,97823.10
2018-04-26T02:45:50.651Z,97821.56
2018-04-26T02:48:18.214Z,97833.33
2018-04-26T02:50:45.823Z,97836.55
2018-04-26T02:53:13.444Z,97833.63
2018-04-26T02:55:41.037Z,97835.20
2018-04-26T02:58:08.689Z,97837.23
2018-04-26T03:00:36.284Z,97832.58
2018-04-26T03:03:03.886Z,97833.73
2018-04-26T03:05:31.494Z,97837.02
2018-04-26T03:07:59.095Z,97832.09
2018-04-26T03:10:26.723Z,97830.06
2018-04-26T03:12:54.514Z,97831.97
2018-04-26T03:15:22.255Z,97824.91
2018-04-26T03:17:49.852Z,97828.67
2018-04-26T03:20:17.534Z,97817.90
2018-04-26T03:22:45.179Z,97824.38
2018-04-26T03:25:12.773Z,97826.16
2018-04-26T03:27:40.386Z,97828.63
2018-04-26T03:30:07.982Z,97829.80
2018-04-26T03:32:35.594Z,97831.50
2018-04-26T03:35:03.216Z,97829.70
2018-04-26T03:37:30.803Z,97827.19
2018-04-26T03:39:58.411Z,97832.76
2018-04-26T03:42:26.007Z,97837.19
2018-04-26T03:44:53.628Z,97845.61
2018-04-26T03:47:21.236Z,97857.30
2018-04-26T03:49:48.844Z,97857.06
2018-04-26T03:52:16.456Z,97858.58
2018-04-26T03:54:44.048Z,97854.52
2018-04-26T03:57:11.663Z,97860.09
2018-04-26T03:59:51.057Z,97857.47
2018-04-26T04:02:30.496Z,97845.02
2018-04-26T04:05:09.896Z,97847.12
2018-04-26T04:07:37.535Z,97852.58
2018-04-26T04:10:05.142Z,97855.23
2018-04-26T04:12:32.738Z,97860.92
2018-04-26T04:15:00.360Z,97868.23
2018-04-26T04:17:27.962Z,97870.95
2018-04-26T04:19:55.886Z,97872.71
2018-04-26T04:22:23.502Z,97879.35
2018-04-26T04:24:51.112Z,97881.70
2018-04-26T04:27:18.726Z,97867.65
2018-04-26T04:29:46.324Z,97887.38
2018-04-26T04:32:13.941Z,97884.06
2018-04-26T04:34:41.560Z,97888.87
2018-04-26T04:37:09.202Z,97889.28
2018-04-26T04:39:36.800Z,97892.95
2018-04-26T04:42:04.406Z,97902.61
2018-04-26T04:44:32.028Z,97904.28
2018-04-26T04:46:59.625Z,97910.62
2018-04-26T04:49:27.250Z,97911.26
2018-04-26T04:51:54.840Z,97917.03
2018-04-26T04:54:22.465Z,97915.72
2018-04-26T04:56:50.061Z,97918.17
2018-04-26T04:59:17.870Z,97918.36
2018-04-26T05:01:45.466Z,97919.41
2018-04-26T05:04:13.064Z,97926.75
2018-04-26T05:06:40.694Z,97916.98
2018-04-26T05:09:08.442Z,97915.47
2018-04-26T05:11:36.060Z,97926.75
2018-04-26T05:14:03.652Z,97930.11
2018-04-26T05:16:31.311Z,97930.41
2018-04-26T05:18:58.906Z,97934.22
2018-04-26T05:21:26.507Z,97941.84
2018-04-26T05:23:54.128Z,97944.30
2018-04-26T05:26:21.726Z,97962.12
2018-04-26T05:28:49.347Z,97972.70
2018-04-26T05:31:16.933Z,97962.94
2018-04-26T05:33:45.298Z,97960.59
2018-04-26T05:36:12.903Z,97965.55
2018-04-26T05:38:40.495Z,97973.44
2018-04-26T05:41:08.269Z,97973.31
2018-04-26T05:43:35.858Z,97972.76
2018-04-26T05:46:03.475Z,97974.13
2018-04-26T05:48:31.092Z,97979.84
2018-04-26T05:50:58.755Z,97978.45
2018-04-26T05:53:26.355Z,97984.66
2018-04-26T05:55:53.999Z,97988.85
2018-04-26T05:58:21.578Z,97996.65
2018-04-26T06:00:49.175Z,98004.30
2018-04-26T06:03:16.993Z,97997.90
2018-04-26T06:05:44.590Z,98000.27
2018-04-26T06:08:12.202Z,97999.13
2018-04-26T06:10:39.833Z,97998.77
2018-04-26T06:13:07.437Z,97994.00
2018-04-26T06:15:35.053Z,97995.17
2018-04-26T06:18:02.649Z,97995.95
2018-04-26T06:20:30.550Z,97984.45
2018-04-26T06:22:58.150Z,97981.44
2018-04-26T06:25:25.738Z,97977.64
2018-04-26T06:27:53.358Z,97979.22
2018-04-26T06:30:20.951Z,97986.25
2018-04-26T06:32:48.739Z,97980.97
2018-04-26T06:35:16.334Z,97977.39
2018-04-26T06:37:43.939Z,97977.97
2018-04-26T06:40:11.560Z,97984.41
2018-04-26T06:42:39.191Z,97994.16
2018-04-26T06:45:06.858Z,97991.82
2018-04-26T06:47:34.447Z,97991.20
2018-04-26T06:50:02.549Z,98002.77
2018-04-26T06:52:30.138Z,97997.45
2018-04-26T06:54:57.735Z,98009.59
2018-04-26T06:57:25.360Z,98014.48
2018-04-26T06:59:52.948Z,98021.53
2018-04-26T07:02:20.563Z,98012.02
2018-04-26T07:04:48.264Z,98018.92
2018-04-26T07:07:15.904Z,98023.04
2018-04-26T07:09:43.513Z,98026.52
2018-04-26T07:12:11.163Z,98040.03
2018-04-26T07:14:38.762Z,98035.50
2018-04-26T07:17:06.356Z,98031.52
2018-04-26T07:19:33.962Z,98022.95
2018-04-26T07:22:01.560Z,98025.73
2018-04-26T07:24:29.212Z,98026.20
2018-04-26T07:26:56.807Z,98012.33
2018-04-26T07:29:24.411Z,98017.50
2018-04-26T07:31:52.029Z,98015.66
2018-04-26T07:34:19.619Z,98018.00
2018-04-26T07:36:47.256Z,98022.00
2018-04-26T07:39:14.855Z,98024.58
2018-04-26T07:41:42.574Z,98023.56
2018-04-26T07:44:10.174Z,98021.22
2018-04-26T07:46:37.795Z,98023.91
2018-04-26T07:49:05.427Z,98018.79
2018-04-26T07:51:33.030Z,98022.30
2018-04-26T07:54:01.393Z,98020.27
2018-04-26T07:56:28.988Z,98024.93
2018-04-26T07:58:56.646Z,98027.38
2018-04-26T08:01:24.234Z,98024.73
2018-04-26T08:03:51.864Z,98025.05
2018-04-26T08:06:19.502Z,98029.34
2018-04-26T08:08:47.099Z,98027.32
2018-04-26T08:11:14.723Z,98021.11
2018-04-26T08:13:42.314Z,98017.26
2018-04-26T08:16:09.935Z,98017.23
2018-04-26T08:18:37.527Z,98037.66
2018-04-26T08:21:05.121Z,98026.73
2018-04-26T08:23:34.475Z,98023.12
2018-04-26T08:26:02.386Z,98018.91
2018-04-26T08:28:30.303Z,98038.03
2018-04-26T08:30:57.940Z,98032.11
2018-04-26T08:33:25.737Z,98038.38
2018-04-26T08:35:53.342Z,98039.22
2018-04-26T08:38:20.933Z,98035.37
2018-04-26T08:40:48.556Z,98040.28
2018-04-26T08:43:16.148Z,98038.53
2018-04-26T08:45:43.759Z,98045.17
2018-04-26T08:48:11.356Z,98027.59
2018-04-26T08:50:39.171Z,98043.70
2018-04-26T08:53:06.774Z,98048.15
2018-04-26T08:55:34.568Z,98050.14
2018-04-26T08:58:02.183Z,98050.56
2018-04-26T09:00:29.773Z,98058.98
2018-04-26T09:02:57.458Z,98054.41
2018-04-26T09:05:25.119Z,98072.58
2018-04-26T09:07:52.926Z,98062.27
2018-04-26T09:10:20.522Z,98065.10
2018-04-26T09:12:48.114Z,98065.47
2018-04-26T09:15:15.731Z,98069.80
2018-04-26T09:17:43.338Z,98075.68
2018-04-26T09:20:11.002Z,98067.17
2018-04-26T09:22:38.593Z,98066.05
2018-04-26T09:25:06.781Z,98077.36
2018-04-26T09:27:34.488Z,98076.80
2018-04-26T09:30:02.117Z,98081.58
2018-04-26T09:32:29.715Z,98089.80
2018-04-26T09:34:57.311Z,98086.03
2018-04-26T09:37:24.949Z,98091.77
2018-04-26T09:39:52.538Z,98083.59
2018-04-26T09:42:20.611Z,98086.33
2018-04-26T09:44:48.319Z,98080.05
2018-04-26T09:47:15.902Z,98087.55
2018-04-26T09:49:43.541Z,98085.44
2018-04-26T09:52:11.832Z,98094.06
2018-04-26T09:54:39.450Z,98086.97
2018-04-26T09:57:08.181Z,98082.02
2018-04-26T09:59:35.995Z,98079.36
2018-04-26T10:02:03.970Z,98083.42
2018-04-26T10:04:37.364Z,98074.69
2018-04-26T10:07:04.958Z,98067.22
2018-04-26T10:09:32.657Z,98072.09
2018-04-26T10:12:00.301Z,98063.66
2018-04-26T10:14:27.885Z,98069.11
2018-04-26T10:16:55.580Z,98067.81
2018-04-26T10:19:23.109Z,98065.17
2018-04-26T10:21:51.046Z,98059.11
2018-04-26T10:24:18.638Z,98054.25
2018-04-26T10:26:46.214Z,98049.84
2018-04-26T10:29:13.818Z,98063.34
2018-04-26T10:31:41.410Z,98061.59
2018-04-26T10:34:09.023Z,98048.16
2018-04-26T10:36:36.608Z,98050.65
2018-04-26T10:39:04.697Z,98058.73
2018-04-26T10:41:32.293Z,98059.71
2018-04-26T10:43:59.927Z,98061.18
2018-04-26T10:46:27.545Z,98061.33
2018-04-26T10:48:55.666Z,98060.80
2018-04-26T10:51:23.684Z,98058.47
2018-04-26T10:53:51.656Z,98056.95
2018-04-26T10:56:19.420Z,98066.50
2018-04-26T10:58:47.014Z,98046.31
2018-04-26T11:01:14.786Z,98043.77
2018-04-26T11:03:42.411Z,98048.34
2018-04-26T11:06:09.995Z,98049.30
2018-04-26T11:08:37.601Z,98067.22
2018-04-26T11:11:05.460Z,98058.00
2018-04-26T11:13:33.529Z,98071.30
2018-04-26T11:16:01.533Z,98052.58
2018-04-26T11:18:29.706Z,98071.17
2018-04-26T11:20:57.314Z,98052.02
2018-04-26T11:23:24.904Z,98058.79
2018-04-26T11:25:52.512Z,98067.48
2018-04-26T11:28:20.104Z,98061.73
2018-04-26T11:30:47.706Z,98065.13
2018-04-26T11:33:15.301Z,98064.75
2018-04-26T11:35:43.595Z,98054.39
2018-04-26T11:38:11.195Z,98059.90
2018-04-26T11:40:38.854Z,98057.03
2018-04-26T11:43:06.443Z,98061.92
2018-04-26T11:45:34.031Z,98060.72
2018-04-26T11:48:01.644Z,98067.11
2018-04-26T11:50:29.237Z,98057.08
2018-04-26T11:52:57.074Z,98054.25
2018-04-26T11:55:24.710Z,98053.53
2018-04-26T11:57:56.362Z,98052.73
2018-04-26T12:00:24.248Z,98062.34
2018-04-26T12:02:51.872Z,98064.56
2018-04-26T12:05:19.546Z,98074.84
2018-04-26T12:07:47.156Z,98065.25
2018-04-26T12:10:14.924Z,98059.58
2018-04-26T12:12:42.634Z,98062.15
2018-04-26T12:15:10.264Z,98070.70
2018-04-26T12:17:38.222Z,98061.23
2018-04-26T12:20:06.101Z,98056.92
2018-04-26T12:22:33.909Z,98060.28
2018-04-26T12:25:01.859Z,98056.87
2018-04-26T12:27:29.699Z,98069.10
2018-04-26T12:29:57.298Z,98067.22
2018-04-26T12:32:24.898Z,98065.44
2018-04-26T12:34:52.606Z,98067.86
2018-04-26T12:37:20.484Z,98074.69
2018-04-26T12:39:48.337Z,98056.51
2018-04-26T12:42:16.049Z,98063.84
2018-04-26T12:44:43.579Z,98067.02
2018-04-26T12:47:11.505Z,98070.64
2018-04-26T12:49:39.099Z,98073.50
2018-04-26T12:52:06.715Z,98061.56
2018-04-26T12:54:34.302Z,98059.81
2018-04-26T12:57:01.943Z,98053.95
2018-04-26T12:59:29.528Z,98047.72
2018-04-26T13:01:57.160Z,98045.08
2018-04-26T13:04:24.782Z,98044.16
2018-04-26T13:06:52.375Z,98033.24
2018-04-26T13:09:19.979Z,98036.22
2018-04-26T13:11:47.580Z,98034.94
2018-04-26T13:14:15.494Z,98039.28
2018-04-26T13:16:43.125Z,98039.92
2018-04-26T13:19:10.720Z,98045.17
2018-04-26T13:21:38.325Z,98047.33
2018-04-26T13:24:05.920Z,98056.03
2018-04-26T13:26:33.527Z,98043.09
2018-04-26T13:29:01.139Z,98046.28
2018-04-26T13:31:29.108Z,98045.91
2018-04-26T13:33:56.697Z,98033.06
2018-04-26T13:36:24.331Z,98036.20
2018-04-26T13:38:51.955Z,98036.80
2018-04-26T13:41:19.555Z,98034.41
2018-04-26T13:43:47.172Z,98040.58
2018-04-26T13:46:14.762Z,98037.03
2018-04-26T13:48:42.637Z,98038.81
2018-04-26T13:51:10.299Z,98041.85
2018-04-26T13:53:38.622Z,98039.17
2018-04-26T13:56:06.257Z,98037.32
2018-04-26T13:58:33.849Z,98051.80
2018-04-26T14:01:01.562Z,98035.73
2018-04-26T14:03:29.149Z,98035.52
2018-04-26T14:05:57.007Z,98044.28
2018-04-26T14:08:24.590Z,98044.09
2018-04-26T14:10:52.183Z,98042.81
2018-04-26T14:13:19.803Z,98041.80
2018-04-26T14:15:47.398Z,98040.34
2018-04-26T14:18:15.014Z,98037.91
2018-04-26T14:20:42.601Z,98031.84
2018-04-26T14:23:10.731Z,98026.50
2018-04-26T14:25:38.297Z,98036.61
2018-04-26T14:28:05.888Z,98032.01
2018-04-26T14:30:33.518Z,98035.23
2018-04-26T14:33:01.111Z,98028.87
2018-04-26T14:35:28.726Z,98028.35
2018-04-26T14:37:56.312Z,98026.31
2018-04-26T14:40:24.179Z,98027.87
2018-04-26T14:42:51.765Z,98028.66
2018-04-26T14:45:19.352Z,98025.09
2018-04-26T14:47:47.048Z,98020.02
2018-04-26T14:50:14.643Z,98018.73
2018-04-26T14:52:42.258Z,98032.48
2018-04-26T14:55:09.853Z,98030.62
2018-04-26T14:57:37.577Z,98030.51
2018-04-26T15:00:05.173Z,98025.78
2018-04-26T15:02:32.764Z,98024.53
2018-04-26T15:05:00.379Z,98023.09
2018-04-26T15:07:27.971Z,98026.53
2018-04-26T15:09:55.584Z,98031.58
2018-04-26T15:12:23.380Z,98029.53
2018-04-26T15:14:51.454Z,98029.95
2018-04-26T15:17:19.049Z,98028.31
2018-04-26T15:19:47.879Z,98023.61
2018-04-26T15:22:15.573Z,98017.82
2018-04-26T15:24:43.165Z,98015.84
2018-04-26T15:27:10.878Z,98011.19
2018-04-26T15:29:38.472Z,98006.89
2018-04-26T15:32:06.326Z,98020.88
2018-04-26T15:34:33.975Z,98019.68
2018-04-26T15:37:01.574Z,98015.91
2018-04-26T15:39:29.200Z,98021.67
2018-04-26T15:41:56.817Z,98024.12
2018-04-26T15:44:24.516Z,98032.77
2018-04-26T15:46:52.040Z,98037.14
2018-04-26T15:49:19.865Z,98022.39
2018-04-26T15:51:47.816Z,98028.91
2018-04-26T15:54:27.360Z,98028.34
2018-04-26T15:57:05.753Z,98029.41
2018-04-26T15:59:44.969Z,98024.78
2018-04-26T16:02:30.044Z,98019.63
2018-04-26T16:05:15.665Z,98021.95
2018-04-26T16:08:00.696Z,98015.45
2018-04-26T16:10:46.102Z,98023.16
2018-04-26T16:13:31.043Z,98024.15
2018-04-26T16:16:16.140Z,98030.14
2018-04-26T16:18:56.086Z,98024.88
2018-04-26T16:21:35.377Z,98030.30
2018-04-26T16:24:20.591Z,98029.05
2018-04-26T16:27:05.751Z,98038.22
2018-04-26T16:29:45.091Z,98032.86
2018-04-26T16:32:30.300Z,98032.94
2018-04-26T16:35:15.382Z,98022.48
2018-04-26T16:38:00.322Z,98029.95
2018-04-26T16:40:27.923Z,98022.02
2018-04-26T16:42:55.579Z,98024.77
2018-04-26T16:45:23.159Z,98030.51
2018-04-26T16:47:50.753Z,98033.21
2018-04-26T16:50:18.398Z,98027.89
2018-04-26T16:52:46.116Z,98027.52
2018-04-26T16:55:13.738Z,98027.28
2018-04-26T16:57:41.527Z,98031.32
2018-04-26T17:00:09.131Z,98030.66
2018-04-26T17:02:36.746Z,98030.29
2018-04-26T17:05:04.341Z,98025.26
2018-04-26T17:07:32.286Z,98026.87
2018-04-26T17:09:59.882Z,98026.22
2018-04-26T17:12:27.478Z,98023.20
2018-04-26T17:14:55.096Z,98028.53
2018-04-26T17:17:22.688Z,98034.26
2018-04-26T17:19:50.508Z,98037.27
2018-04-26T17:22:18.100Z,98036.40
2018-04-26T17:24:45.929Z,98030.38
2018-04-26T17:27:13.522Z,98027.34
2018-04-26T17:29:41.110Z,98023.95
2018-04-26T17:32:08.756Z,98041.05
2018-04-26T17:34:36.407Z,98036.16
2018-04-26T17:37:03.998Z,98028.53
2018-04-26T17:39:31.625Z,98031.30
2018-04-26T17:41:59.252Z,98043.55
2018-04-26T17:44:26.842Z,98042.20
2018-04-26T17:46:54.616Z,98033.17
2018-04-26T17:49:22.211Z,98037.95
2018-04-26T17:51:49.799Z,98051.77
2018-04-26T17:54:17.420Z,98051.78
2018-04-26T17:56:45.030Z,98044.97
2018-04-26T17:59:12.639Z,98046.27
2018-04-26T18:01:40.306Z,98056.01
2018-04-26T18:04:07.950Z,98062.89
2018-04-26T18:06:35.569Z,98054.42
2018-04-26T18:09:03.159Z,98067.73
2018-04-26T18:11:30.904Z,98069.77
2018-04-26T18:13:58.622Z,98075.31
2018-04-26T18:16:26.427Z,98078.42
2018-04-26T18:18:54.027Z,98078.78
2018-04-26T18:21:21.633Z,98077.41
2018-04-26T18:23:49.282Z,98080.96
2018-04-26T18:26:16.876Z,98081.75
2018-04-26T18:28:44.522Z,98082.15
2018-04-26T18:31:12.100Z,98075.34
2018-04-26T18:33:39.979Z,98075.24
2018-04-26T18:36:07.582Z,98075.17
2018-04-26T18:38:35.172Z,98079.39
2018-04-26T18:41:02.784Z,98077.61
2018-04-26T18:43:30.374Z,98081.09
2018-04-26T18:45:58.276Z,98086.72
2018-04-26T18:48:25.910Z,98095.23
2018-04-26T18:50:53.503Z,98104.63
2018-04-26T18:53:21.126Z,98113.86
2018-04-26T18:55:48.714Z,98112.20
2018-04-26T18:58:16.335Z,98115.63
2018-04-26T19:00:43.935Z,98119.39
2018-04-26T19:03:11.568Z,98120.19
2018-04-26T19:05:39.181Z,98121.55
2018-04-26T19:08:06.771Z,98122.02
2018-04-26T19:10:34.469Z,98125.66
2018-04-26T19:13:02.178Z,98121.62
2018-04-26T19:15:29.852Z,98127.20
2018-04-26T19:17:57.447Z,98143.53
2018-04-26T19:20:25.248Z,98150.95
2018-04-26T19:22:52.912Z,98153.20
2018-04-26T19:25:20.524Z,98162.25
2018-04-26T19:27:48.211Z,98158.55
2018-04-26T19:30:15.763Z,98149.23
2018-04-26T19:32:43.380Z,98150.74
2018-04-26T19:35:10.987Z,98148.72
2018-04-26T19:37:38.887Z,98158.61
2018-04-26T19:40:06.475Z,98149.83
2018-04-26T19:42:34.067Z,98150.66
2018-04-26T19:45:01.681Z,98158.09
2018-04-26T19:47:29.302Z,98160.41
2018-04-26T19:49:56.928Z,98159.67
2018-04-26T19:52:24.527Z,98156.70
2018-04-26T19:54:52.250Z,98162.54
2018-04-26T19:57:19.851Z,98164.05
2018-04-26T19:59:47.460Z,98165.56
2018-04-26T20:02:15.066Z,98165.25
2018-04-26T20:04:42.670Z,98163.11
2018-04-26T20:07:10.295Z,98171.53
2018-04-26T20:09:37.887Z,98162.22
2018-04-26T20:12:05.513Z,98168.30
2018-04-26T20:14:33.128Z,98166.09
2018-04-26T20:17:00.724Z,98167.62
2018-04-26T20:19:28.330Z,98169.39
2018-04-26T20:21:55.946Z,98168.98
2018-04-26T20:24:23.637Z,98169.11
2018-04-26T20:26:51.227Z,98172.16
2018-04-26T20:29:18.979Z,98170.11
2018-04-26T20:31:46.644Z,98175.67
2018-04-26T20:34:14.243Z,98178.94
2018-04-26T20:36:42.208Z,98173.28
2018-04-26T20:39:09.816Z,98169.30
2018-04-26T20:41:49.106Z,98163.16
2018-04-26T20:44:28.534Z,98153.05
2018-04-26T20:46:56.368Z,98155.39
2018-04-26T20:49:23.966Z,98151.49
2018-04-26T20:51:51.589Z,98152.50
2018-04-26T20:54:19.226Z,98150.91
2018-04-26T20:56:46.818Z,98148.25
2018-04-26T20:59:14.423Z,98159.39
2018-04-26T21:01:42.028Z,98161.11
2018-04-26T21:04:09.808Z,98155.14
2018-04-26T21:06:37.399Z,98153.63
2018-04-26T21:09:05.842Z,98152.23
2018-04-26T21:11:33.516Z,98159.08
2018-04-26T21:14:02.001Z,98159.45
2018-04-26T21:16:29.710Z,98161.23
2018-04-26T21:18:57.296Z,98160.95
2018-04-26T21:21:25.061Z,98157.89
2018-04-26T21:23:52.654Z,98157.27
2018-04-26T21:26:20.251Z,98155.55
2018-04-26T21:28:47.863Z,98158.75
2018-04-26T21:31:15.470Z,98164.56
2018-04-26T21:33:43.091Z,98164.41
2018-04-26T21:36:10.686Z,98159.58
2018-04-26T21:38:38.345Z,98165.98
2018-04-26T21:41:05.932Z,98156.30
2018-04-26T21:43:33.528Z,98163.83
2018-04-26T21:46:01.147Z,98158.58
2018-04-26T21:48:28.752Z,98159.91
2018-04-26T21:51:01.852Z,98165.34
2018-04-26T21:53:35.046Z,98174.08
2018-04-26T21:56:08.390Z,98167.03
2018-04-26T21:58:41.658Z,98171.25
2018-04-26T22:01:14.805Z,98170.85
2018-04-26T22:03:42.714Z,98174.00
2018-04-26T22:06:10.323Z,98172.70
2018-04-26T22:08:37.927Z,98173.11
2018-04-26T22:11:05.575Z,98177.00
2018-04-26T22:13:33.162Z,98171.75
2018-04-26T22:16:00.751Z,98170.81
2018-04-26T22:18:28.379Z,98173.70
2018-04-26T22:20:55.979Z,98163.62
2018-04-26T22:23:23.615Z,98166.22
2018-04-26T22:25:51.231Z,98174.64
2018-04-26T22:28:18.823Z,98171.51
2018-04-26T22:30:46.434Z,98169.00
2018-04-26T22:33:14.108Z,98170.00
2018-04-26T22:35:41.989Z,98170.95
2018-04-26T22:38:09.587Z,98170.40
2018-04-26T22:40:37.184Z,98163.41
2018-04-26T22:43:04.819Z,98155.53
2018-04-26T22:45:32.406Z,98159.72
2018-04-26T22:48:00.179Z,98165.61
2018-04-26T22:50:27.767Z,98165.87
2018-04-26T22:52:55.359Z,98159.42
2018-04-26T22:55:22.973Z,98171.04
2018-04-26T22:57:50.563Z,98156.75
2018-04-26T23:00:18.198Z,98153.38
2018-04-26T23:02:45.791Z,98153.81
2018-04-26T23:05:13.426Z,98143.45
2018-04-26T23:07:41.006Z,98144.72
2018-04-26T23:10:08.591Z,98143.56
2018-04-26T23:12:36.222Z,98137.12
2018-04-26T23:15:03.827Z,98138.30
2018-04-26T23:17:31.443Z,98143.14
2018-04-26T23:19:59.039Z,98139.72
2018-04-26T23:22:26.872Z,98141.77
2018-04-26T23:24:54.466Z,98141.03
2018-04-26T23:27:22.056Z,98141.22
2018-04-26T23:29:49.674Z,98142.95
2018-04-26T23:32:17.263Z,98140.41
2018-04-26T23:34:44.885Z,98136.55
2018-04-26T23:37:12.487Z,98134.05
2018-04-26T23:39:40.287Z,98135.56
2018-04-26T23:42:07.882Z,98140.80
2018-04-26T23:44:35.464Z,98135.63
2018-04-26T23:47:03.075Z,98134.28
2018-04-26T23:49:30.666Z,98139.84
2018-04-26T23:51:58.284Z,98135.69
2018-04-26T23:54:25.868Z,98131.73
2018-04-26T23:56:53.840Z,98135.14
2018-04-26T23:59:21.436Z,98138.52
